createdAt,value
2023-04-28T00:00:13.618Z,8.93
2023-04-28T00:02:42.015Z,8.55
2023-04-28T00:05:11.096Z,7.45
2023-04-28T00:07:39.557Z,7.72
2023-04-28T00:10:10.738Z,8.15
2023-04-28T00:12:39.217Z,7.50
2023-04-28T00:15:09.093Z,8.00
2023-04-28T00:17:37.574Z,8.38
2023-04-28T00:20:07.396Z,7.45
2023-04-28T00:22:35.897Z,6.97
2023-04-28T00:25:05.167Z,7.05
2023-04-28T00:27:35.881Z,7.63
2023-04-28T00:30:04.522Z,7.18
2023-04-28T00:32:34.744Z,6.90
2023-04-28T00:35:03.234Z,7.63
2023-04-28T00:37:32.147Z,6.93
2023-04-28T00:40:00.503Z,6.53
2023-04-28T00:42:29.322Z,5.75
2023-04-28T00:44:59.122Z,5.43
2023-04-28T00:47:27.606Z,5.25
2023-04-28T00:49:56.682Z,4.28
2023-04-28T00:52:25.340Z,4.63
2023-04-28T00:54:53.772Z,4.60
2023-04-28T00:57:23.382Z,6.07
2023-04-28T00:59:52.294Z,5.50
2023-04-28T01:02:23.851Z,6.30
2023-04-28T01:04:54.252Z,5.72
2023-04-28T01:07:23.554Z,5.65
2023-04-28T01:09:52.326Z,5.28
2023-04-28T01:12:25.813Z,4.93
2023-04-28T01:14:57.500Z,4.72
2023-04-28T01:17:27.729Z,4.10
2023-04-28T01:19:56.250Z,4.15
2023-04-28T01:22:24.622Z,4.13
2023-04-28T01:24:54.335Z,3.83
2023-04-28T01:27:23.341Z,3.42
2023-04-28T01:29:51.654Z,4.18
2023-04-28T01:32:20.025Z,4.65
2023-04-28T01:34:48.537Z,5.35
2023-04-28T01:37:17.056Z,4.75
2023-04-28T01:39:45.452Z,5.80
2023-04-28T01:42:15.280Z,5.18
2023-04-28T01:44:43.715Z,5.75
2023-04-28T01:47:12.623Z,5.68
2023-04-28T01:49:41.088Z,5.43
2023-04-28T01:52:09.848Z,5.47
2023-04-28T01:54:38.378Z,5.13
2023-04-28T01:57:06.810Z,5.30
2023-04-28T01:59:37.068Z,4.68
2023-04-28T02:02:07.127Z,3.97
2023-04-28T02:04:39.153Z,4.20
2023-04-28T02:07:08.188Z,4.20
2023-04-28T02:09:36.644Z,4.05
2023-04-28T02:12:05.842Z,4.32
2023-04-28T02:14:34.289Z,4.93
2023-04-28T02:17:05.554Z,4.53
2023-04-28T02:19:38.734Z,4.50
2023-04-28T02:22:08.084Z,4.60
2023-04-28T02:24:38.545Z,4.60
2023-04-28T02:27:10.188Z,4.88
2023-04-28T02:29:38.653Z,4.93
2023-04-28T02:32:09.927Z,4.80
2023-04-28T02:34:38.651Z,5.25
2023-04-28T02:37:09.491Z,5.25
2023-04-28T02:39:38.886Z,5.18
2023-04-28T02:42:11.460Z,4.85
2023-04-28T02:44:39.947Z,5.15
2023-04-28T02:47:09.825Z,5.22
2023-04-28T02:49:40.289Z,5.22
2023-04-28T02:52:09.679Z,4.68
2023-04-28T02:54:39.821Z,5.13
2023-04-28T02:57:08.326Z,5.18
2023-04-28T02:59:36.920Z,4.78
2023-04-28T03:02:05.627Z,5.32
2023-04-28T03:04:37.117Z,4.88
2023-04-28T03:07:06.591Z,4.85
2023-04-28T03:09:36.034Z,4.80
2023-04-28T03:12:07.627Z,5.10
2023-04-28T03:14:36.315Z,5.15
2023-04-28T03:17:05.974Z,5.20
2023-04-28T03:19:34.686Z,5.13
2023-04-28T03:22:04.571Z,5.32
2023-04-28T03:24:34.767Z,4.95
2023-04-28T03:27:03.720Z,5.35
2023-04-28T03:29:32.638Z,5.35
2023-04-28T03:32:01.206Z,4.93
2023-04-28T03:34:29.696Z,5.07
2023-04-28T03:36:58.861Z,4.75
2023-04-28T03:39:32.336Z,5.10
2023-04-28T03:42:01.077Z,5.65
2023-04-28T03:44:38.475Z,5.20
2023-04-28T03:47:08.778Z,5.13
2023-04-28T03:49:38.589Z,4.13
2023-04-28T03:52:07.271Z,4.93
2023-04-28T03:54:37.410Z,4.80
2023-04-28T03:57:05.972Z,4.07
2023-04-28T03:59:35.738Z,4.63
2023-04-28T04:02:04.401Z,4.40
2023-04-28T04:04:33.146Z,4.35
2023-04-28T04:07:02.004Z,4.07
2023-04-28T04:09:31.164Z,4.78
2023-04-28T04:12:02.278Z,4.68
2023-04-28T04:14:30.776Z,4.70
2023-04-28T04:16:59.147Z,4.63
2023-04-28T04:19:27.996Z,5.10
2023-04-28T04:21:57.144Z,5.15
2023-04-28T04:24:25.592Z,5.05
2023-04-28T04:26:54.367Z,5.00
2023-04-28T04:29:35.424Z,4.55
2023-04-28T04:32:08.945Z,5.43
2023-04-28T04:34:37.440Z,5.20
2023-04-28T04:37:06.216Z,4.80
2023-04-28T04:39:37.580Z,5.35
2023-04-28T04:42:20.650Z,4.97
2023-04-28T04:45:09.027Z,5.32
2023-04-28T04:47:39.174Z,5.05
2023-04-28T04:50:09.029Z,5.28
2023-04-28T04:52:37.709Z,4.90
2023-04-28T04:55:07.246Z,5.20
2023-04-28T04:57:35.684Z,5.38
2023-04-28T05:00:44.537Z,4.65
2023-04-28T05:03:14.299Z,5.45
2023-04-28T05:05:46.181Z,5.53
2023-04-28T05:08:21.560Z,6.20
2023-04-28T05:10:49.916Z,5.97
2023-04-28T05:13:18.652Z,5.55
2023-04-28T05:15:49.698Z,4.68
2023-04-28T05:18:32.870Z,5.25
2023-04-28T05:21:01.561Z,5.10
2023-04-28T05:23:29.959Z,4.85
2023-04-28T05:25:58.862Z,4.55
2023-04-28T05:28:27.527Z,5.40
2023-04-28T05:30:58.563Z,5.47
2023-04-28T05:33:27.578Z,5.43
2023-04-28T05:35:56.453Z,5.97
2023-04-28T05:38:25.801Z,5.60
2023-04-28T05:40:55.674Z,5.55
2023-04-28T05:43:24.282Z,5.47
2023-04-28T05:45:52.819Z,5.13
2023-04-28T05:48:22.567Z,5.43
2023-04-28T05:50:50.951Z,5.72
2023-04-28T05:53:19.348Z,5.10
2023-04-28T05:55:50.375Z,4.70
2023-04-28T05:58:18.846Z,5.03
2023-04-28T06:00:47.488Z,4.82
2023-04-28T06:03:18.804Z,5.63
2023-04-28T06:08:47.868Z,5.10
2023-04-28T06:11:22.747Z,5.40
2023-04-28T06:13:54.178Z,4.80
2023-04-28T06:16:23.461Z,5.35
2023-04-28T06:18:53.185Z,5.20
2023-04-28T06:21:24.827Z,5.38
2023-04-28T06:23:53.202Z,5.53
2023-04-28T06:26:22.040Z,5.57
2023-04-28T06:28:50.732Z,5.22
2023-04-28T06:31:19.163Z,4.07
2023-04-28T06:33:47.497Z,3.40
2023-04-28T06:36:17.719Z,3.40
2023-04-28T06:38:47.727Z,3.42
2023-04-28T06:41:17.213Z,3.40
2023-04-28T06:43:50.830Z,3.50
2023-04-28T06:46:32.318Z,3.00
2023-04-28T06:49:01.057Z,3.05
2023-04-28T06:51:29.766Z,2.90
2023-04-28T06:54:01.952Z,3.33
2023-04-28T06:56:30.464Z,3.28
2023-04-28T06:58:59.041Z,3.30
2023-04-28T07:01:27.545Z,3.40
2023-04-28T07:03:56.120Z,3.78
2023-04-28T07:06:24.604Z,3.50
2023-04-28T07:08:53.122Z,3.75
2023-04-28T07:11:23.276Z,3.53
2023-04-28T07:13:51.707Z,3.58
2023-04-28T07:16:21.392Z,4.07
2023-04-28T07:18:50.065Z,3.55
2023-04-28T07:21:18.480Z,3.97
2023-04-28T07:23:46.798Z,3.58
2023-04-28T07:26:16.284Z,3.53
2023-04-28T07:28:46.202Z,3.80
2023-04-28T07:31:14.615Z,3.80
2023-04-28T07:33:42.988Z,3.30
2023-04-28T07:36:18.591Z,3.28
2023-04-28T07:38:47.429Z,3.25
2023-04-28T07:41:15.788Z,3.00
2023-04-28T07:43:44.647Z,2.67
2023-04-28T07:46:15.025Z,3.08
2023-04-28T07:48:43.686Z,3.05
2023-04-28T07:51:12.178Z,3.05
2023-04-28T07:53:40.632Z,3.10
2023-04-28T07:56:09.300Z,2.75
2023-04-28T07:58:37.672Z,2.80
2023-04-28T08:01:06.238Z,2.55
2023-04-28T08:03:36.294Z,2.30
2023-04-28T08:06:05.102Z,2.40
2023-04-28T08:08:33.651Z,2.00
2023-04-28T08:11:02.653Z,1.63
2023-04-28T08:13:31.091Z,1.42
2023-04-28T08:16:00.410Z,0.93
2023-04-28T08:18:29.282Z,0.98
2023-04-28T08:20:59.232Z,1.10
2023-04-28T08:23:28.217Z,1.30
2023-04-28T08:25:56.603Z,1.50
2023-04-28T08:28:25.019Z,1.70
2023-04-28T08:30:55.418Z,1.70
2023-04-28T08:33:24.315Z,1.73
2023-04-28T08:35:52.709Z,1.70
2023-04-28T08:38:24.056Z,1.70
2023-04-28T08:40:52.632Z,1.95
2023-04-28T08:43:21.689Z,1.60
2023-04-28T08:45:53.382Z,1.65
2023-04-28T08:48:23.512Z,1.65
2023-04-28T08:50:53.433Z,1.90
2023-04-28T08:53:26.604Z,1.80
2023-04-28T08:55:57.480Z,1.90
2023-04-28T08:58:27.070Z,1.90
2023-04-28T09:00:55.685Z,2.75
2023-04-28T09:03:24.548Z,2.30
2023-04-28T09:05:53.237Z,2.58
2023-04-28T09:08:21.599Z,2.83
2023-04-28T09:11:07.716Z,2.90
2023-04-28T09:13:36.530Z,2.80
2023-04-28T09:16:05.927Z,3.00
2023-04-28T09:18:34.312Z,2.95
2023-04-28T09:21:07.834Z,2.90
2023-04-28T09:23:47.257Z,2.47
2023-04-28T09:27:13.347Z,2.70
2023-04-28T09:29:54.253Z,2.50
2023-04-28T09:32:24.847Z,2.47
2023-04-28T09:34:56.723Z,2.78
2023-04-28T09:37:27.161Z,2.58
2023-04-28T09:39:56.051Z,2.60
2023-04-28T09:42:35.171Z,2.75
2023-04-28T09:45:06.723Z,2.60
2023-04-28T09:47:37.499Z,2.38
2023-04-28T09:50:09.450Z,3.00
2023-04-28T09:52:38.153Z,2.35
2023-04-28T09:55:08.611Z,2.55
2023-04-28T09:57:37.867Z,2.17
2023-04-28T10:00:09.701Z,2.45
2023-04-28T10:05:11.369Z,2.20
2023-04-28T10:07:41.283Z,1.73
2023-04-28T10:10:11.677Z,2.47
2023-04-28T10:12:40.595Z,1.95
2023-04-28T10:15:13.365Z,2.10
2023-04-28T10:17:41.799Z,2.35
2023-04-28T10:20:12.479Z,2.30
2023-04-28T10:22:55.688Z,2.22
2023-04-28T10:25:30.116Z,2.15
2023-04-28T10:27:59.413Z,2.10
2023-04-28T10:30:30.372Z,2.42
2023-04-28T10:33:27.065Z,2.08
2023-04-28T10:35:56.182Z,1.92
2023-04-28T10:38:24.651Z,1.90
2023-04-28T10:40:54.190Z,1.80
2023-04-28T10:43:37.889Z,1.73
2023-04-28T10:46:09.210Z,1.60
2023-04-28T10:49:08.466Z,1.60
2023-04-28T10:51:37.672Z,1.60
2023-04-28T10:54:17.105Z,1.65
2023-04-28T10:57:19.436Z,1.70
2023-04-28T10:59:49.088Z,1.80
2023-04-28T11:02:44.492Z,1.73
2023-04-28T11:05:16.376Z,1.80
2023-04-28T11:08:30.376Z,1.92
2023-04-28T11:11:24.191Z,1.90
2023-04-28T11:13:54.491Z,2.08
2023-04-28T11:16:25.799Z,2.10
2023-04-28T11:18:59.043Z,1.95
2023-04-28T11:21:29.253Z,1.90
2023-04-28T11:23:58.985Z,1.98
2023-04-28T11:26:29.266Z,1.90
2023-04-28T11:28:58.814Z,1.90
2023-04-28T11:31:28.614Z,1.75
2023-04-28T11:34:02.055Z,2.10
2023-04-28T11:36:35.580Z,1.90
2023-04-28T11:39:07.442Z,1.98
2023-04-28T11:41:38.302Z,2.00
2023-04-28T11:44:14.255Z,2.05
2023-04-28T11:46:50.327Z,2.00
2023-04-28T11:49:20.604Z,1.77
2023-04-28T11:51:50.237Z,2.38
2023-04-28T11:54:23.568Z,1.90
2023-04-28T11:56:52.887Z,2.55
2023-04-28T11:59:25.831Z,2.60
2023-04-28T12:01:56.834Z,2.70
2023-04-28T12:04:31.840Z,2.42
2023-04-28T12:07:05.034Z,2.45
2023-04-28T12:09:34.532Z,2.20
2023-04-28T12:12:04.891Z,2.17
2023-04-28T12:14:35.878Z,2.40
2023-04-28T12:17:05.090Z,1.90
2023-04-28T12:19:46.152Z,1.60
2023-04-28T12:22:19.901Z,1.48
2023-04-28T12:25:03.227Z,1.47
2023-04-28T12:27:33.192Z,1.40
2023-04-28T12:30:01.877Z,1.45
2023-04-28T12:32:40.750Z,1.27
2023-04-28T12:35:11.480Z,1.45
2023-04-28T12:37:41.259Z,1.40
2023-04-28T12:40:11.428Z,1.30
2023-04-28T12:42:39.761Z,1.40
2023-04-28T12:45:09.619Z,1.20
2023-04-28T12:47:38.732Z,1.20
2023-04-28T12:50:08.281Z,1.50
2023-04-28T12:52:38.188Z,1.10
2023-04-28T12:55:07.428Z,1.30
2023-04-28T12:57:39.039Z,1.42
2023-04-28T13:00:09.302Z,1.10
2023-04-28T13:02:38.291Z,1.48
2023-04-28T13:05:07.937Z,1.48
2023-04-28T13:07:38.018Z,1.70
2023-04-28T13:10:07.956Z,1.50
2023-04-28T13:12:36.428Z,1.20
2023-04-28T13:15:05.991Z,1.10
2023-04-28T13:17:35.062Z,1.50
2023-04-28T13:20:06.544Z,1.23
2023-04-28T13:22:39.896Z,1.35
2023-04-28T13:25:18.834Z,1.20
2023-04-28T13:27:47.213Z,0.80
2023-04-28T13:30:15.882Z,0.90
2023-04-28T13:32:47.619Z,0.70
2023-04-28T13:35:16.069Z,0.70
2023-04-28T13:37:46.068Z,0.65
2023-04-28T13:40:14.577Z,0.60
2023-04-28T13:42:42.895Z,0.60
2023-04-28T13:45:14.481Z,0.90
2023-04-28T13:47:44.798Z,1.13
2023-04-28T13:50:13.174Z,1.90
2023-04-28T13:52:41.698Z,1.60
2023-04-28T13:55:13.449Z,1.80
2023-04-28T13:57:46.353Z,1.92
2023-04-28T14:00:15.765Z,1.77
2023-04-28T14:02:44.567Z,1.70
2023-04-28T14:05:13.358Z,1.70
2023-04-28T14:07:42.054Z,1.58
2023-04-28T14:10:12.308Z,1.30
2023-04-28T14:12:40.829Z,1.38
2023-04-28T14:15:09.833Z,1.50
2023-04-28T14:17:38.282Z,1.27
2023-04-28T14:20:08.370Z,1.00
2023-04-28T14:22:36.917Z,0.80
2023-04-28T14:25:05.785Z,0.90
2023-04-28T14:27:35.663Z,0.90
2023-04-28T14:30:04.915Z,1.00
2023-04-28T14:32:33.397Z,1.00
2023-04-28T14:35:04.824Z,0.90
2023-04-28T14:37:33.863Z,0.93
2023-04-28T14:40:02.604Z,1.00
2023-04-28T14:42:36.226Z,0.70
2023-04-28T14:45:07.773Z,0.80
2023-04-28T14:47:38.137Z,0.70
2023-04-28T14:50:08.677Z,0.65
2023-04-28T14:52:38.387Z,0.60
2023-04-28T14:55:13.509Z,0.55
2023-04-28T14:57:42.009Z,0.60
2023-04-28T15:00:13.185Z,0.73
2023-04-28T15:02:41.623Z,0.65
2023-04-28T15:05:11.332Z,1.00
2023-04-28T15:07:40.002Z,1.50
2023-04-28T15:10:09.415Z,1.60
2023-04-28T15:12:37.750Z,1.50
2023-04-28T15:15:07.034Z,1.30
2023-04-28T15:17:37.509Z,1.25
2023-04-28T15:20:08.028Z,1.10
2023-04-28T15:22:37.653Z,1.30
2023-04-28T15:25:07.318Z,1.60
2023-04-28T15:27:36.925Z,1.85
2023-04-28T15:30:08.469Z,1.80
2023-04-28T15:32:38.169Z,2.00
2023-04-28T15:35:07.338Z,1.80
2023-04-28T15:37:45.018Z,1.98
2023-04-28T15:40:21.250Z,1.90
2023-04-28T15:42:51.611Z,1.63
2023-04-28T15:45:21.751Z,1.40
2023-04-28T15:47:55.215Z,1.25
2023-04-28T15:50:24.175Z,1.20
2023-04-28T15:52:52.622Z,1.23
2023-04-28T15:55:23.873Z,1.20
2023-04-28T15:57:52.980Z,1.17
2023-04-28T16:00:21.394Z,1.10
2023-04-28T16:02:51.454Z,1.00
2023-04-28T16:05:20.092Z,1.15
2023-04-28T16:07:48.441Z,1.20
2023-04-28T16:10:17.683Z,1.25
2023-04-28T16:12:46.626Z,1.27
2023-04-28T16:15:19.054Z,1.30
2023-04-28T16:17:48.833Z,1.30
2023-04-28T16:20:19.146Z,1.15
2023-04-28T16:22:53.125Z,1.20
2023-04-28T16:25:21.664Z,1.15
2023-04-28T16:27:51.990Z,1.17
2023-04-28T16:30:20.332Z,1.30
2023-04-28T16:32:48.788Z,1.20
2023-04-28T16:35:20.474Z,1.40
2023-04-28T16:37:48.862Z,1.15
2023-04-28T16:40:17.272Z,0.90
2023-04-28T16:42:46.040Z,1.05
2023-04-28T16:45:15.305Z,0.95
2023-04-28T16:47:49.048Z,1.10
2023-04-28T16:50:19.632Z,1.00
2023-04-28T16:52:48.224Z,0.93
2023-04-28T16:55:18.669Z,0.95
2023-04-28T16:57:47.128Z,1.20
2023-04-28T17:00:19.317Z,1.00
2023-04-28T17:02:47.857Z,1.20
2023-04-28T17:05:16.403Z,0.93
2023-04-28T17:07:46.184Z,1.02
2023-04-28T17:10:16.002Z,1.08
2023-04-28T17:12:47.661Z,1.00
2023-04-28T17:15:17.280Z,1.20
2023-04-28T17:17:49.219Z,1.10
2023-04-28T17:20:20.313Z,1.25
2023-04-28T17:22:50.554Z,0.80
2023-04-28T17:25:19.233Z,1.00
2023-04-28T17:27:47.566Z,1.00
2023-04-28T17:30:16.128Z,1.08
2023-04-28T17:35:27.154Z,1.05
2023-04-28T17:37:56.903Z,1.00
2023-04-28T17:40:25.305Z,0.93
2023-04-28T17:43:04.213Z,1.05
2023-04-28T17:45:32.720Z,1.10
2023-04-28T17:48:01.273Z,1.20
2023-04-28T17:50:30.088Z,1.13
2023-04-28T17:53:00.233Z,1.17
2023-04-28T17:55:28.618Z,1.25
2023-04-28T17:57:56.921Z,1.30
2023-04-28T18:00:25.379Z,1.52
2023-04-28T18:02:55.037Z,1.23
2023-04-28T18:05:24.162Z,1.30
2023-04-28T18:07:56.472Z,1.50
2023-04-28T18:10:28.064Z,1.35
2023-04-28T18:12:56.458Z,1.50
2023-04-28T18:15:27.789Z,1.50
2023-04-28T18:17:58.928Z,1.40
2023-04-28T18:20:27.555Z,1.42
2023-04-28T18:22:56.429Z,1.67
2023-04-28T18:25:27.010Z,1.52
2023-04-28T18:27:55.422Z,1.70
2023-04-28T18:30:23.807Z,1.63
2023-04-28T18:32:52.278Z,1.50
2023-04-28T18:35:20.781Z,1.80
2023-04-28T18:37:49.642Z,1.58
2023-04-28T18:40:17.993Z,1.50
2023-04-28T18:42:48.081Z,1.42
2023-04-28T18:45:16.459Z,1.70
2023-04-28T18:47:45.085Z,1.92
2023-04-28T18:50:13.740Z,1.60
2023-04-28T18:52:42.143Z,2.05
2023-04-28T18:55:10.541Z,2.10
2023-04-28T18:57:40.349Z,2.00
2023-04-28T19:00:11.873Z,2.00
2023-04-28T19:02:40.373Z,2.13
2023-04-28T19:05:09.525Z,2.10
2023-04-28T19:07:38.009Z,2.13
2023-04-28T19:10:07.809Z,1.85
2023-04-28T19:12:36.364Z,1.60
2023-04-28T19:15:06.680Z,1.48
2023-04-28T19:17:36.580Z,1.50
2023-04-28T19:20:05.783Z,1.80
2023-04-28T19:22:36.583Z,1.60
2023-04-28T19:25:06.708Z,1.58
2023-04-28T19:27:37.193Z,1.38
2023-04-28T19:30:08.404Z,1.40
2023-04-28T19:32:38.461Z,1.30
2023-04-28T19:35:07.983Z,1.30
2023-04-28T19:37:36.421Z,1.15
2023-04-28T19:40:06.900Z,1.10
2023-04-28T19:42:35.725Z,1.17
2023-04-28T19:45:04.287Z,1.27
2023-04-28T19:47:34.611Z,1.25
2023-04-28T19:50:05.156Z,1.20
2023-04-28T19:52:33.563Z,1.30
2023-04-28T19:55:02.176Z,1.50
2023-04-28T19:57:30.532Z,1.70
2023-04-28T19:59:59.092Z,1.50
2023-04-28T20:02:27.554Z,1.65
2023-04-28T20:04:56.473Z,1.80
2023-04-28T20:07:26.371Z,1.63
2023-04-28T20:09:56.072Z,1.70
2023-04-28T20:12:25.355Z,1.95
2023-04-28T20:14:54.153Z,1.95
2023-04-28T20:17:22.728Z,2.25
2023-04-28T20:19:52.058Z,2.10
2023-04-28T20:22:20.620Z,2.13
2023-04-28T20:24:51.988Z,2.30
2023-04-28T20:27:21.084Z,2.50
2023-04-28T20:29:49.650Z,2.45
2023-04-28T20:32:18.828Z,2.58
2023-04-28T20:34:47.769Z,2.90
2023-04-28T20:37:16.646Z,2.78
2023-04-28T20:39:45.027Z,3.50
2023-04-28T20:42:14.768Z,3.30
2023-04-28T20:44:43.662Z,3.50
2023-04-28T20:47:12.095Z,3.97
2023-04-28T20:49:40.475Z,3.60
2023-04-28T20:52:09.326Z,3.67
2023-04-28T20:54:37.762Z,4.10
2023-04-28T20:57:06.504Z,3.72
2023-04-28T20:59:36.767Z,4.20
2023-04-28T21:02:05.198Z,3.97
2023-04-28T21:04:33.725Z,4.35
2023-04-28T21:07:02.103Z,4.57
2023-04-28T21:09:30.982Z,4.10
2023-04-28T21:11:59.739Z,4.10
2023-04-28T21:14:28.302Z,3.83
2023-04-28T21:16:58.072Z,4.22
2023-04-28T21:19:26.772Z,4.40
2023-04-28T21:21:55.181Z,4.40
2023-04-28T21:24:23.508Z,4.20
2023-04-28T21:26:52.133Z,4.55
2023-04-28T21:29:20.466Z,4.40
2023-04-28T21:31:48.872Z,5.40
2023-04-28T21:34:18.631Z,5.05
2023-04-28T21:36:48.781Z,5.43
2023-04-28T21:39:17.477Z,5.63
2023-04-28T21:41:45.954Z,5.47
2023-04-28T21:44:14.409Z,6.13
2023-04-28T21:46:42.905Z,5.20
2023-04-28T21:49:11.320Z,6.95
2023-04-28T21:51:42.249Z,7.13
2023-04-28T21:54:10.834Z,7.15
2023-04-28T21:56:39.201Z,7.25
2023-04-28T21:59:07.597Z,7.80
2023-04-28T22:01:36.281Z,7.45
2023-04-28T22:04:08.593Z,7.22
2023-04-28T22:06:37.323Z,8.35
2023-04-28T22:09:07.769Z,8.02
2023-04-28T22:11:36.152Z,8.13
2023-04-28T22:14:04.880Z,8.43
2023-04-28T22:16:33.480Z,8.20
2023-04-28T22:19:02.188Z,8.20
2023-04-28T22:21:30.613Z,8.90
2023-04-28T22:23:59.442Z,8.63
2023-04-28T22:26:32.333Z,8.27
2023-04-28T22:29:00.675Z,7.80
2023-04-28T22:31:29.129Z,8.40
2023-04-28T22:33:57.495Z,8.45
2023-04-28T22:36:25.896Z,9.15
2023-04-28T22:38:54.294Z,8.70
2023-04-28T22:41:24.523Z,9.65
2023-04-28T22:43:54.452Z,9.35
2023-04-28T22:46:22.968Z,10.18
2023-04-28T22:48:51.744Z,10.45
2023-04-28T22:51:20.253Z,10.13
2023-04-28T22:53:49.322Z,11.13
2023-04-28T22:56:17.716Z,11.13
2023-04-28T22:58:46.068Z,12.68
2023-04-28T23:01:16.182Z,12.25
2023-04-28T23:03:44.729Z,12.73
2023-04-28T23:06:13.212Z,12.75
2023-04-28T23:08:41.598Z,13.10
2023-04-28T23:11:10.042Z,13.75
2023-04-28T23:13:38.413Z,12.85
2023-04-28T23:16:07.543Z,12.50
2023-04-28T23:18:37.457Z,12.70
2023-04-28T23:21:06.129Z,11.35
2023-04-28T23:23:34.509Z,10.88
2023-04-28T23:26:03.526Z,10.65
2023-04-28T23:28:31.920Z,9.70
2023-04-28T23:31:00.291Z,9.32
2023-04-28T23:33:29.696Z,9.43
2023-04-28T23:35:59.417Z,9.18
2023-04-28T23:38:27.992Z,8.30
2023-04-28T23:40:56.461Z,8.20
2023-04-28T23:43:25.072Z,7.68
2023-04-28T23:45:53.601Z,7.65
2023-04-28T23:48:22.649Z,8.52
2023-04-28T23:50:51.294Z,7.80
2023-04-28T23:53:22.431Z,8.30
2023-04-28T23:55:51.037Z,7.90
2023-04-28T23:58:19.860Z,7.15
